Wittmundhafen Air Base

METAR ETMN TAF ETMN
3 °C
°C
-
°C
18m
Edad
07:38:13
LT
06:38
UTC
0 ft

4.000

8.000

12.000

16.000

20.000

FEW 2.000
BKN 15.000
VFR
<?= Yii::t('app', 'Wind direction') ?> <?= Yii::t('app', 'of'); ?>
350°
08:02
Amanecer
100%
Humedad
Cizalladura del viento
Cerrado/Nieve
Alcance visual RWY
Estado de la RWY
Visibilidad vert.
Visibilidad mínima
CAVOK
Tendencia
Corrección
Informe especial
1040 hPa
QNH
METAR ETMN 060620Z 35006KT 9999 FEW020 BKN150 03/03 Q1040 BLU BLU TEMPO RED
Muy nuboso
6 kt
6 kt
07:00
LIFR
5 kt
08:00
LIFR
5 kt
09:00
LIFR
5 kt
10:00
LIFR
5 kt
11:00
IFR
5 kt
12:00
LIFR
5 kt
13:00
LIFR
5 kt
10 km+
Visibilidad
15.000 ft
Cielo nuboso
6 kt
Viento
metar-taf.com/ETNT

Metar-Taf.com

Decodificador visual

Nosotros y terceros seguimos tu comportamiento en Internet en nuestro sitio web con cookies. Si continúas, asumimos que estás de acuerdo con nuestra Política de cookies.